sensor_id;sensor_type;location;lat;lon;timestamp;pressure;altitude;pressure_sealevel;temperature;humidity
59939;BME280;45801;51.810;19.444;2023-10-08T00:02:25;98819.52;;;11.57;78.74
59939;BME280;45801;51.810;19.444;2023-10-08T00:04:53;98819.59;;;11.59;78.74
59939;BME280;45801;51.810;19.444;2023-10-08T00:07:24;98813.35;;;11.61;78.52
59939;BME280;45801;51.810;19.444;2023-10-08T00:09:50;98810.27;;;11.64;78.56
59939;BME280;45801;51.810;19.444;2023-10-08T00:12:18;98810.65;;;11.64;78.07
59939;BME280;45801;51.810;19.444;2023-10-08T00:14:46;98814.13;;;11.64;78.37
59939;BME280;45801;51.810;19.444;2023-10-08T00:17:17;98820.64;;;11.59;78.53
59939;BME280;45801;51.810;19.444;2023-10-08T00:19:44;98827.27;;;11.59;78.24
59939;BME280;45801;51.810;19.444;2023-10-08T00:22:11;98827.27;;;11.58;78.26
59939;BME280;45801;51.810;19.444;2023-10-08T00:24:40;98832.27;;;11.56;78.40
59939;BME280;45801;51.810;19.444;2023-10-08T00:27:10;98836.41;;;11.54;78.38
59939;BME280;45801;51.810;19.444;2023-10-08T00:29:40;98833.73;;;11.52;78.44
59939;BME280;45801;51.810;19.444;2023-10-08T00:32:09;98820.42;;;11.53;78.56
59939;BME280;45801;51.810;19.444;2023-10-08T00:34:40;98809.41;;;11.54;78.39
59939;BME280;45801;51.810;19.444;2023-10-08T00:37:10;98809.41;;;11.54;78.38
59939;BME280;45801;51.810;19.444;2023-10-08T00:39:41;98809.77;;;11.55;78.43
59939;BME280;45801;51.810;19.444;2023-10-08T00:42:08;98796.44;;;11.54;78.46
59939;BME280;45801;51.810;19.444;2023-10-08T00:44:36;98788.14;;;11.52;78.21
59939;BME280;45801;51.810;19.444;2023-10-08T00:47:15;98785.77;;;11.49;78.17
59939;BME280;45801;51.810;19.444;2023-10-08T00:49:44;98795.67;;;11.46;78.41
59939;BME280;45801;51.810;19.444;2023-10-08T00:52:13;98795.70;;;11.42;78.80
59939;BME280;45801;51.810;19.444;2023-10-08T00:54:42;98804.77;;;11.41;78.86
59939;BME280;45801;51.810;19.444;2023-10-08T00:57:21;98820.28;;;11.38;79.02
59939;BME280;45801;51.810;19.444;2023-10-08T00:59:49;98821.73;;;11.39;79.09
59939;BME280;45801;51.810;19.444;2023-10-08T01:02:25;98825.70;;;11.42;79.01
59939;BME280;45801;51.810;19.444;2023-10-08T01:05:09;98829.48;;;11.45;78.95
59939;BME280;45801;51.810;19.444;2023-10-08T01:07:39;98827.44;;;11.47;78.97
59939;BME280;45801;51.810;19.444;2023-10-08T01:10:13;98824.70;;;11.49;78.95
59939;BME280;45801;51.810;19.444;2023-10-08T01:12:48;98815.48;;;11.52;78.78
59939;BME280;45801;51.810;19.444;2023-10-08T01:15:30;98810.81;;;11.54;78.89
59939;BME280;45801;51.810;19.444;2023-10-08T01:17:58;98801.42;;;11.56;78.91
59939;BME280;45801;51.810;19.444;2023-10-08T01:20:30;98784.96;;;11.57;78.78
59939;BME280;45801;51.810;19.444;2023-10-08T01:23:08;98778.17;;;11.59;78.44
59939;BME280;45801;51.810;19.444;2023-10-08T01:25:40;98789.77;;;11.59;78.46
59939;BME280;45801;51.810;19.444;2023-10-08T01:28:09;98801.26;;;11.57;78.68
59939;BME280;45801;51.810;19.444;2023-10-08T01:30:44;98814.17;;;11.55;78.95
59939;BME280;45801;51.810;19.444;2023-10-08T01:33:14;98815.57;;;11.55;79.05
59939;BME280;45801;51.810;19.444;2023-10-08T01:35:42;98815.23;;;11.55;79.01
59939;BME280;45801;51.810;19.444;2023-10-08T01:38:09;98821.69;;;11.54;78.94
59939;BME280;45801;51.810;19.444;2023-10-08T01:40:50;98824.93;;;11.51;79.10
59939;BME280;45801;51.810;19.444;2023-10-08T01:43:19;98831.86;;;11.48;79.33
59939;BME280;45801;51.810;19.444;2023-10-08T01:45:47;98831.17;;;11.49;79.59
59939;BME280;45801;51.810;19.444;2023-10-08T01:48:18;98821.38;;;11.49;79.61
59939;BME280;45801;51.810;19.444;2023-10-08T01:50:47;98812.33;;;11.52;79.40
59939;BME280;45801;51.810;19.444;2023-10-08T01:53:14;98805.73;;;11.54;79.40
59939;BME280;45801;51.810;19.444;2023-10-08T01:55:42;98810.27;;;11.53;79.41
59939;BME280;45801;51.810;19.444;2023-10-08T01:58:16;98818.67;;;11.53;79.37
59939;BME280;45801;51.810;19.444;2023-10-08T02:00:46;98817.98;;;11.53;79.31
59939;BME280;45801;51.810;19.444;2023-10-08T02:03:14;98818.01;;;11.54;79.60
59939;BME280;45801;51.810;19.444;2023-10-08T02:05:49;98828.18;;;11.54;79.68
59939;BME280;45801;51.810;19.444;2023-10-08T02:08:20;98839.50;;;11.52;79.82
59939;BME280;45801;51.810;19.444;2023-10-08T02:10:47;98837.50;;;11.49;79.71
59939;BME280;45801;51.810;19.444;2023-10-08T02:13:14;98830.48;;;11.48;79.60
59939;BME280;45801;51.810;19.444;2023-10-08T02:15:49;98825.71;;;11.48;79.83
59939;BME280;45801;51.810;19.444;2023-10-08T02:18:22;98829.31;;;11.45;79.89
59939;BME280;45801;51.810;19.444;2023-10-08T02:20:52;98835.52;;;11.42;79.79
59939;BME280;45801;51.810;19.444;2023-10-08T02:23:19;98840.16;;;11.39;80.06
59939;BME280;45801;51.810;19.444;2023-10-08T02:25:45;98853.05;;;11.37;80.23
59939;BME280;45801;51.810;19.444;2023-10-08T02:28:12;98853.52;;;11.36;80.33
59939;BME280;45801;51.810;19.444;2023-10-08T02:30:42;98851.04;;;11.35;80.26
59939;BME280;45801;51.810;19.444;2023-10-08T02:33:09;98851.14;;;11.32;80.22
59939;BME280;45801;51.810;19.444;2023-10-08T02:35:43;98861.48;;;11.33;80.10
59939;BME280;45801;51.810;19.444;2023-10-08T02:38:14;98875.69;;;11.32;80.06
59939;BME280;45801;51.810;19.444;2023-10-08T02:40:45;98877.30;;;11.34;79.98
59939;BME280;45801;51.810;19.444;2023-10-08T02:43:14;98882.77;;;11.34;79.89
59939;BME280;45801;51.810;19.444;2023-10-08T02:45:42;98888.92;;;11.35;79.99
59939;BME280;45801;51.810;19.444;2023-10-08T02:48:13;98897.19;;;11.36;79.94
59939;BME280;45801;51.810;19.444;2023-10-08T02:50:40;98907.10;;;11.29;79.81
59939;BME280;45801;51.810;19.444;2023-10-08T02:53:07;98906.67;;;11.26;79.91
59939;BME280;45801;51.810;19.444;2023-10-08T02:55:40;98913.63;;;11.25;80.19
59939;BME280;45801;51.810;19.444;2023-10-08T02:58:10;98916.08;;;11.14;80.39
59939;BME280;45801;51.810;19.444;2023-10-08T03:00:46;98914.94;;;11.07;80.51
59939;BME280;45801;51.810;19.444;2023-10-08T03:03:17;98911.58;;;11.06;80.68
59939;BME280;45801;51.810;19.444;2023-10-08T03:05:49;98914.45;;;11.03;80.99
59939;BME280;45801;51.810;19.444;2023-10-08T03:08:18;98914.89;;;11.01;81.09
59939;BME280;45801;51.810;19.444;2023-10-08T03:10:49;98914.45;;;11.03;81.22
59939;BME280;45801;51.810;19.444;2023-10-08T03:13:22;98923.95;;;11.04;81.33
59939;BME280;45801;51.810;19.444;2023-10-08T03:15:49;98917.80;;;11.04;80.82
59939;BME280;45801;51.810;19.444;2023-10-08T03:18:28;98920.40;;;11.03;80.99
59939;BME280;45801;51.810;19.444;2023-10-08T03:21:06;98937.08;;;11.04;81.19
59939;BME280;45801;51.810;19.444;2023-10-08T03:23:47;98954.30;;;11.05;81.16
59939;BME280;45801;51.810;19.444;2023-10-08T03:26:24;98956.02;;;10.99;80.76
59939;BME280;45801;51.810;19.444;2023-10-08T03:29:02;98955.91;;;10.96;80.59
59939;BME280;45801;51.810;19.444;2023-10-08T03:31:34;98957.27;;;10.95;81.20
59939;BME280;45801;51.810;19.444;2023-10-08T03:34:17;98952.23;;;10.97;80.95
59939;BME280;45801;51.810;19.444;2023-10-08T03:36:46;98939.61;;;10.92;80.28
59939;BME280;45801;51.810;19.444;2023-10-08T03:39:14;98949.06;;;10.91;80.42
59939;BME280;45801;51.810;19.444;2023-10-08T03:41:41;98952.65;;;10.93;80.26
59939;BME280;45801;51.810;19.444;2023-10-08T03:44:08;98956.64;;;10.92;79.90
59939;BME280;45801;51.810;19.444;2023-10-08T03:46:43;98960.80;;;10.91;79.69
59939;BME280;45801;51.810;19.444;2023-10-08T03:49:10;98969.06;;;10.87;79.43
59939;BME280;45801;51.810;19.444;2023-10-08T03:51:50;98975.16;;;10.82;79.24
59939;BME280;45801;51.810;19.444;2023-10-08T03:54:21;98962.43;;;10.83;79.89
59939;BME280;45801;51.810;19.444;2023-10-08T03:57:01;98958.11;;;10.86;79.40
59939;BME280;45801;51.810;19.444;2023-10-08T03:59:39;98962.66;;;10.85;79.22
59939;BME280;45801;51.810;19.444;2023-10-08T04:02:08;98974.98;;;10.86;79.38
59939;BME280;45801;51.810;19.444;2023-10-08T04:04:43;98968.02;;;10.88;79.28
59939;BME280;45801;51.810;19.444;2023-10-08T04:07:25;98970.77;;;10.91;79.36
59939;BME280;45801;51.810;19.444;2023-10-08T04:10:27;98988.96;;;10.90;78.81
59939;BME280;45801;51.810;19.444;2023-10-08T04:13:15;99001.10;;;10.91;78.91
59939;BME280;45801;51.810;19.444;2023-10-08T04:15:43;99004.60;;;10.91;78.90
59939;BME280;45801;51.810;19.444;2023-10-08T04:18:11;99004.83;;;10.92;79.11
59939;BME280;45801;51.810;19.444;2023-10-08T04:20:37;99001.95;;;10.94;79.10
59939;BME280;45801;51.810;19.444;2023-10-08T04:23:08;98997.77;;;10.96;78.93
59939;BME280;45801;51.810;19.444;2023-10-08T04:25:44;99014.06;;;10.95;78.80
59939;BME280;45801;51.810;19.444;2023-10-08T04:28:13;99021.76;;;10.95;79.07
59939;BME280;45801;51.810;19.444;2023-10-08T04:30:40;99029.66;;;10.96;79.02
59939;BME280;45801;51.810;19.444;2023-10-08T04:33:08;99032.59;;;10.94;78.70
59939;BME280;45801;51.810;19.444;2023-10-08T04:35:42;99038.54;;;10.90;78.69
59939;BME280;45801;51.810;19.444;2023-10-08T04:38:23;99045.06;;;10.87;78.78
59939;BME280;45801;51.810;19.444;2023-10-08T04:40:52;99045.12;;;10.84;78.62
59939;BME280;45801;51.810;19.444;2023-10-08T04:43:20;99043.42;;;10.80;78.63
59939;BME280;45801;51.810;19.444;2023-10-08T04:45:58;99041.37;;;10.77;78.80
59939;BME280;45801;51.810;19.444;2023-10-08T04:48:25;99043.42;;;10.75;78.82
59939;BME280;45801;51.810;19.444;2023-10-08T04:50:57;99049.60;;;10.68;78.35
59939;BME280;45801;51.810;19.444;2023-10-08T04:53:29;99050.80;;;10.63;78.37
59939;BME280;45801;51.810;19.444;2023-10-08T04:56:06;99053.74;;;10.62;78.56
59939;BME280;45801;51.810;19.444;2023-10-08T04:58:40;99063.34;;;10.61;78.45
59939;BME280;45801;51.810;19.444;2023-10-08T05:01:08;99065.96;;;10.61;78.26
59939;BME280;45801;51.810;19.444;2023-10-08T05:03:48;99068.19;;;10.59;78.21
59939;BME280;45801;51.810;19.444;2023-10-08T05:06:24;99078.41;;;10.56;77.95
59939;BME280;45801;51.810;19.444;2023-10-08T05:09:11;99091.11;;;10.55;77.95
59939;BME280;45801;51.810;19.444;2023-10-08T05:11:49;99094.67;;;10.52;77.64
59939;BME280;45801;51.810;19.444;2023-10-08T05:14:20;99102.49;;;10.46;77.54
59939;BME280;45801;51.810;19.444;2023-10-08T05:17:06;99114.03;;;10.41;77.82
59939;BME280;45801;51.810;19.444;2023-10-08T05:19:38;99117.48;;;10.40;77.83
59939;BME280;45801;51.810;19.444;2023-10-08T05:22:08;99122.01;;;10.40;77.46
59939;BME280;45801;51.810;19.444;2023-10-08T05:24:58;99132.89;;;10.36;77.24
59939;BME280;45801;51.810;19.444;2023-10-08T05:27:44;99141.81;;;10.33;77.07
59939;BME280;45801;51.810;19.444;2023-10-08T05:30:22;99153.45;;;10.27;76.88
59939;BME280;45801;51.810;19.444;2023-10-08T05:32:55;99161.92;;;10.12;76.67
59939;BME280;45801;51.810;19.444;2023-10-08T05:35:42;99161.52;;;10.03;77.11
59939;BME280;45801;51.810;19.444;2023-10-08T05:38:09;99173.86;;;10.01;77.39
59939;BME280;45801;51.810;19.444;2023-10-08T05:40:44;99184.67;;;9.97;76.57
59939;BME280;45801;51.810;19.444;2023-10-08T05:43:34;99190.15;;;9.86;75.80
59939;BME280;45801;51.810;19.444;2023-10-08T05:46:14;99191.01;;;9.78;75.95
59939;BME280;45801;51.810;19.444;2023-10-08T05:48:50;99196.70;;;9.68;75.95
59939;BME280;45801;51.810;19.444;2023-10-08T05:51:32;99211.79;;;9.54;75.91
59939;BME280;45801;51.810;19.444;2023-10-08T05:54:32;99214.08;;;9.47;76.02
59939;BME280;45801;51.810;19.444;2023-10-08T05:57:08;99224.40;;;9.47;76.51
59939;BME280;45801;51.810;19.444;2023-10-08T05:59:43;99233.98;;;9.43;76.15
59939;BME280;45801;51.810;19.444;2023-10-08T06:02:26;99242.41;;;9.36;76.13
59939;BME280;45801;51.810;19.444;2023-10-08T06:05:06;99250.43;;;9.36;76.72
59939;BME280;45801;51.810;19.444;2023-10-08T06:07:43;99255.60;;;9.31;75.73
59939;BME280;45801;51.810;19.444;2023-10-08T06:10:17;99260.73;;;9.32;76.60
59939;BME280;45801;51.810;19.444;2023-10-08T06:15:40;99278.21;;;9.32;74.18
59939;BME280;45801;51.810;19.444;2023-10-08T06:18:33;99286.75;;;9.28;74.13
59939;BME280;45801;51.810;19.444;2023-10-08T06:21:04;99293.52;;;9.24;74.14
59939;BME280;45801;51.810;19.444;2023-10-08T06:23:37;99299.98;;;9.16;73.11
59939;BME280;45801;51.810;19.444;2023-10-08T06:26:05;99306.84;;;9.10;73.34
59939;BME280;45801;51.810;19.444;2023-10-08T06:28:38;99313.79;;;9.09;73.84
59939;BME280;45801;51.810;19.444;2023-10-08T06:31:06;99319.80;;;9.11;75.03
59939;BME280;45801;51.810;19.444;2023-10-08T06:33:39;99327.84;;;9.11;74.64
59939;BME280;45801;51.810;19.444;2023-10-08T06:36:07;99330.94;;;9.13;75.09
59939;BME280;45801;51.810;19.444;2023-10-08T06:38:41;99330.64;;;9.17;75.03
59939;BME280;45801;51.810;19.444;2023-10-08T06:41:11;99329.77;;;9.18;73.91
59939;BME280;45801;51.810;19.444;2023-10-08T06:43:42;99339.09;;;9.16;73.86
59939;BME280;45801;51.810;19.444;2023-10-08T06:46:14;99338.08;;;9.13;73.11
59939;BME280;45801;51.810;19.444;2023-10-08T06:48:41;99342.42;;;9.12;72.83
59939;BME280;45801;51.810;19.444;2023-10-08T06:51:13;99351.98;;;9.08;72.33
59939;BME280;45801;51.810;19.444;2023-10-08T06:53:40;99358.85;;;9.13;73.31
59939;BME280;45801;51.810;19.444;2023-10-08T06:56:07;99366.61;;;9.10;72.13
59939;BME280;45801;51.810;19.444;2023-10-08T06:58:39;99370.36;;;9.05;71.12
59939;BME280;45801;51.810;19.444;2023-10-08T07:01:09;99376.92;;;9.00;70.22
59939;BME280;45801;51.810;19.444;2023-10-08T07:03:36;99389.02;;;9.01;70.56
59939;BME280;45801;51.810;19.444;2023-10-08T07:06:04;99399.37;;;9.01;70.65
59939;BME280;45801;51.810;19.444;2023-10-08T07:08:44;99405.84;;;9.02;70.47
59939;BME280;45801;51.810;19.444;2023-10-08T07:11:22;99413.25;;;9.00;70.14
59939;BME280;45801;51.810;19.444;2023-10-08T07:13:50;99419.55;;;9.03;71.14
59939;BME280;45801;51.810;19.444;2023-10-08T07:16:20;99421.96;;;9.00;68.86
59939;BME280;45801;51.810;19.444;2023-10-08T07:18:48;99428.67;;;8.97;69.11
59939;BME280;45801;51.810;19.444;2023-10-08T07:21:27;99427.52;;;8.95;68.69
59939;BME280;45801;51.810;19.444;2023-10-08T07:24:14;99428.31;;;8.91;67.67
59939;BME280;45801;51.810;19.444;2023-10-08T07:26:48;99431.02;;;8.89;66.75
59939;BME280;45801;51.810;19.444;2023-10-08T07:29:16;99437.29;;;8.89;67.68
59939;BME280;45801;51.810;19.444;2023-10-08T07:31:44;99439.58;;;8.89;67.52
59939;BME280;45801;51.810;19.444;2023-10-08T07:34:20;99445.52;;;8.92;67.59
59939;BME280;45801;51.810;19.444;2023-10-08T07:36:50;99449.85;;;8.95;67.50
59939;BME280;45801;51.810;19.444;2023-10-08T07:39:21;99450.95;;;8.99;67.56
59939;BME280;45801;51.810;19.444;2023-10-08T07:42:03;99450.42;;;8.99;65.52
59939;BME280;45801;51.810;19.444;2023-10-08T07:44:34;99457.95;;;8.93;63.24
59939;BME280;45801;51.810;19.444;2023-10-08T07:49:53;99462.19;;;8.97;64.91
59939;BME280;45801;51.810;19.444;2023-10-08T07:52:21;99464.63;;;9.04;65.27
59939;BME280;45801;51.810;19.444;2023-10-08T07:54:48;99467.36;;;9.09;65.71
59939;BME280;45801;51.810;19.444;2023-10-08T07:57:16;99468.95;;;9.12;64.97
59939;BME280;45801;51.810;19.444;2023-10-08T07:59:52;99472.41;;;9.22;66.03
59939;BME280;45801;51.810;19.444;2023-10-08T08:02:26;99474.96;;;9.27;64.94
59939;BME280;45801;51.810;19.444;2023-10-08T08:04:53;99481.28;;;9.28;63.83
59939;BME280;45801;51.810;19.444;2023-10-08T08:07:20;99487.70;;;9.27;61.67
59939;BME280;45801;51.810;19.444;2023-10-08T08:09:50;99496.05;;;9.26;62.45
59939;BME280;45801;51.810;19.444;2023-10-08T08:12:18;99499.25;;;9.27;63.14
59939;BME280;45801;51.810;19.444;2023-10-08T08:14:45;99497.77;;;9.26;61.64
59939;BME280;45801;51.810;19.444;2023-10-08T08:17:12;99494.36;;;9.31;63.74
59939;BME280;45801;51.810;19.444;2023-10-08T08:19:44;99489.33;;;9.25;60.67
59939;BME280;45801;51.810;19.444;2023-10-08T08:22:14;99488.98;;;9.28;62.64
59939;BME280;45801;51.810;19.444;2023-10-08T08:25:00;99488.60;;;9.34;63.91
59939;BME280;45801;51.810;19.444;2023-10-08T08:27:52;99495.62;;;9.41;63.23
59939;BME280;45801;51.810;19.444;2023-10-08T08:30:20;99498.90;;;9.47;61.54
59939;BME280;45801;51.810;19.444;2023-10-08T08:32:52;99498.09;;;9.52;61.13
59939;BME280;45801;51.810;19.444;2023-10-08T08:35:20;99499.75;;;9.54;58.76
59939;BME280;45801;51.810;19.444;2023-10-08T08:37:48;99502.05;;;9.58;59.61
59939;BME280;45801;51.810;19.444;2023-10-08T08:40:20;99506.09;;;9.68;62.14
59939;BME280;45801;51.810;19.444;2023-10-08T08:43:06;99505.34;;;9.78;59.95
59939;BME280;45801;51.810;19.444;2023-10-08T08:45:35;99502.56;;;9.85;60.59
59939;BME280;45801;51.810;19.444;2023-10-08T08:48:02;99503.13;;;9.89;59.42
59939;BME280;45801;51.810;19.444;2023-10-08T08:50:54;99502.89;;;9.92;59.92
59939;BME280;45801;51.810;19.444;2023-10-08T08:53:22;99503.27;;;9.96;58.19
59939;BME280;45801;51.810;19.444;2023-10-08T08:55:51;99506.32;;;10.01;59.12
59939;BME280;45801;51.810;19.444;2023-10-08T08:58:18;99512.31;;;10.09;58.59
59939;BME280;45801;51.810;19.444;2023-10-08T09:00:47;99521.80;;;10.10;55.56
59939;BME280;45801;51.810;19.444;2023-10-08T09:03:17;99519.40;;;10.07;55.63
59939;BME280;45801;51.810;19.444;2023-10-08T09:05:46;99520.96;;;10.10;57.67
59939;BME280;45801;51.810;19.444;2023-10-08T09:08:18;99526.02;;;10.14;56.87
59939;BME280;45801;51.810;19.444;2023-10-08T09:10:46;99529.70;;;10.14;54.94
59939;BME280;45801;51.810;19.444;2023-10-08T09:13:20;99537.66;;;10.19;55.83
59939;BME280;45801;51.810;19.444;2023-10-08T09:15:49;99532.16;;;10.25;55.52
59939;BME280;45801;51.810;19.444;2023-10-08T09:18:22;99531.54;;;10.33;55.66
59939;BME280;45801;51.810;19.444;2023-10-08T09:21:20;99529.90;;;10.35;52.16
59939;BME280;45801;51.810;19.444;2023-10-08T09:23:54;99533.98;;;10.39;54.00
59939;BME280;45801;51.810;19.444;2023-10-08T09:26:35;99541.55;;;10.40;52.72
59939;BME280;45801;51.810;19.444;2023-10-08T09:29:17;99540.02;;;10.49;55.67
59939;BME280;45801;51.810;19.444;2023-10-08T09:32:00;99540.02;;;10.56;51.59
59939;BME280;45801;51.810;19.444;2023-10-08T09:34:30;99543.95;;;10.57;51.00
59939;BME280;45801;51.810;19.444;2023-10-08T09:37:04;99550.02;;;10.64;52.95
59939;BME280;45801;51.810;19.444;2023-10-08T09:40:35;99559.15;;;10.71;51.47
59939;BME280;45801;51.810;19.444;2023-10-08T09:43:56;99560.45;;;10.76;52.90
59939;BME280;45801;51.810;19.444;2023-10-08T09:47:12;99563.15;;;10.82;51.39
59939;BME280;45801;51.810;19.444;2023-10-08T09:50:09;99566.13;;;10.97;54.36
59939;BME280;45801;51.810;19.444;2023-10-08T09:53:15;99573.64;;;11.15;51.55
59939;BME280;45801;51.810;19.444;2023-10-08T09:55:57;99572.23;;;11.18;49.95
59939;BME280;45801;51.810;19.444;2023-10-08T09:58:30;99571.28;;;11.25;51.07
59939;BME280;45801;51.810;19.444;2023-10-08T10:00:58;99570.34;;;11.23;48.52
59939;BME280;45801;51.810;19.444;2023-10-08T10:03:33;99577.88;;;11.15;49.04
59939;BME280;45801;51.810;19.444;2023-10-08T10:06:03;99578.93;;;11.23;49.90
59939;BME280;45801;51.810;19.444;2023-10-08T10:08:41;99576.83;;;11.35;49.90
59939;BME280;45801;51.810;19.444;2023-10-08T10:11:11;99572.63;;;11.43;50.02
59939;BME280;45801;51.810;19.444;2023-10-08T10:16:11;99574.77;;;11.75;52.75
59939;BME280;45801;51.810;19.444;2023-10-08T10:18:44;99578.55;;;11.97;50.16
59939;BME280;45801;51.810;19.444;2023-10-08T10:26:28;99580.13;;;12.42;51.78
59939;BME280;45801;51.810;19.444;2023-10-08T10:31:43;99586.45;;;12.55;44.18
59939;BME280;45801;51.810;19.444;2023-10-08T10:34:15;99588.76;;;12.47;45.15
59939;BME280;45801;51.810;19.444;2023-10-08T10:36:44;99588.07;;;12.47;46.83
59939;BME280;45801;51.810;19.444;2023-10-08T10:39:18;99585.50;;;12.49;44.78
59939;BME280;45801;51.810;19.444;2023-10-08T10:41:58;99591.17;;;12.55;44.70
59939;BME280;45801;51.810;19.444;2023-10-08T10:44:31;99595.48;;;12.66;45.23
59939;BME280;45801;51.810;19.444;2023-10-08T10:46:59;99602.36;;;12.71;43.82
59939;BME280;45801;51.810;19.444;2023-10-08T10:49:50;99606.25;;;12.62;41.60
59939;BME280;45801;51.810;19.444;2023-10-08T10:52:17;99607.20;;;12.68;44.32
59939;BME280;45801;51.810;19.444;2023-10-08T10:55:07;99603.77;;;12.74;44.09
59939;BME280;45801;51.810;19.444;2023-10-08T10:57:55;99603.04;;;12.87;44.83
59939;BME280;45801;51.810;19.444;2023-10-08T11:00:41;99610.31;;;12.98;43.44
59939;BME280;45801;51.810;19.444;2023-10-08T11:03:09;99612.79;;;12.94;41.15
59939;BME280;45801;51.810;19.444;2023-10-08T11:06:00;99615.66;;;12.91;40.76
59939;BME280;45801;51.810;19.444;2023-10-08T11:08:32;99611.45;;;12.96;41.09
59939;BME280;45801;51.810;19.444;2023-10-08T11:11:03;99614.47;;;13.05;43.13
59939;BME280;45801;51.810;19.444;2023-10-08T11:13:34;99611.79;;;13.13;43.37
59939;BME280;45801;51.810;19.444;2023-10-08T11:16:07;99612.29;;;13.21;44.89
59939;BME280;45801;51.810;19.444;2023-10-08T11:18:42;99609.60;;;13.25;40.84
59939;BME280;45801;51.810;19.444;2023-10-08T11:21:10;99608.37;;;13.25;41.35
59939;BME280;45801;51.810;19.444;2023-10-08T11:23:48;99609.64;;;13.30;43.59
59939;BME280;45801;51.810;19.444;2023-10-08T11:26:36;99598.05;;;13.31;40.65
59939;BME280;45801;51.810;19.444;2023-10-08T11:29:07;99601.17;;;13.25;41.06
59939;BME280;45801;51.810;19.444;2023-10-08T11:31:42;99603.80;;;13.24;42.80
59939;BME280;45801;51.810;19.444;2023-10-08T11:34:11;99600.41;;;13.24;42.43
59939;BME280;45801;51.810;19.444;2023-10-08T11:36:39;99601.13;;;13.29;43.48
59939;BME280;45801;51.810;19.444;2023-10-08T11:39:19;99601.26;;;13.32;42.64
59939;BME280;45801;51.810;19.444;2023-10-08T11:42:02;99604.30;;;13.42;43.67
59939;BME280;45801;51.810;19.444;2023-10-08T11:44:31;99605.10;;;13.49;42.28
59939;BME280;45801;51.810;19.444;2023-10-08T11:47:03;99600.02;;;13.54;44.23
59939;BME280;45801;51.810;19.444;2023-10-08T11:49:41;99604.14;;;13.71;44.58
59939;BME280;45801;51.810;19.444;2023-10-08T11:52:14;99599.36;;;13.85;42.06
59939;BME280;45801;51.810;19.444;2023-10-08T11:54:44;99602.48;;;13.93;42.92
59939;BME280;45801;51.810;19.444;2023-10-08T11:57:10;99598.88;;;14.01;41.82
59939;BME280;45801;51.810;19.444;2023-10-08T11:59:38;99594.73;;;14.08;43.49
59939;BME280;45801;51.810;19.444;2023-10-08T12:02:06;99597.76;;;14.24;43.96
59939;BME280;45801;51.810;19.444;2023-10-08T12:04:33;99601.53;;;14.32;41.55
59939;BME280;45801;51.810;19.444;2023-10-08T12:07:00;99599.14;;;14.34;40.48
59939;BME280;45801;51.810;19.444;2023-10-08T12:09:33;99597.32;;;14.37;42.20
59939;BME280;45801;51.810;19.444;2023-10-08T12:12:04;99597.23;;;14.40;41.80
59939;BME280;45801;51.810;19.444;2023-10-08T12:14:36;99599.17;;;14.40;39.96
59939;BME280;45801;51.810;19.444;2023-10-08T12:17:04;99600.55;;;14.34;39.96
59939;BME280;45801;51.810;19.444;2023-10-08T12:19:37;99605.27;;;14.23;39.28
59939;BME280;45801;51.810;19.444;2023-10-08T12:22:07;99613.79;;;14.14;39.27
59939;BME280;45801;51.810;19.444;2023-10-08T12:24:35;99611.52;;;14.10;39.99
59939;BME280;45801;51.810;19.444;2023-10-08T12:27:02;99609.40;;;14.14;41.16
59939;BME280;45801;51.810;19.444;2023-10-08T12:29:29;99607.86;;;14.21;41.25
59939;BME280;45801;51.810;19.444;2023-10-08T12:31:59;99605.95;;;14.27;40.87
59939;BME280;45801;51.810;19.444;2023-10-08T12:34:26;99606.83;;;14.22;38.38
59939;BME280;45801;51.810;19.444;2023-10-08T12:36:56;99608.14;;;14.09;38.01
59939;BME280;45801;51.810;19.444;2023-10-08T12:39:22;99603.25;;;14.05;40.19
59939;BME280;45801;51.810;19.444;2023-10-08T12:41:54;99604.16;;;14.01;40.37
59939;BME280;45801;51.810;19.444;2023-10-08T12:44:23;99609.02;;;14.04;41.81
59939;BME280;45801;51.810;19.444;2023-10-08T12:46:50;99610.02;;;14.07;41.62
59939;BME280;45801;51.810;19.444;2023-10-08T12:49:17;99608.82;;;14.08;40.90
59939;BME280;45801;51.810;19.444;2023-10-08T12:51:47;99612.45;;;14.11;42.34
59939;BME280;45801;51.810;19.444;2023-10-08T12:54:14;99616.87;;;13.92;37.88
59939;BME280;45801;51.810;19.444;2023-10-08T12:56:48;99618.47;;;13.87;40.20
59939;BME280;45801;51.810;19.444;2023-10-08T12:59:15;99623.11;;;13.74;38.28
59939;BME280;45801;51.810;19.444;2023-10-08T13:01:48;99622.57;;;13.55;38.51
59939;BME280;45801;51.810;19.444;2023-10-08T13:04:20;99625.80;;;13.38;39.02
59939;BME280;45801;51.810;19.444;2023-10-08T13:06:54;99621.69;;;13.19;39.02
59939;BME280;45801;51.810;19.444;2023-10-08T13:09:27;99625.26;;;13.07;39.83
59939;BME280;45801;51.810;19.444;2023-10-08T13:11:57;99633.01;;;13.02;40.98
59939;BME280;45801;51.810;19.444;2023-10-08T13:14:26;99635.33;;;12.95;40.25
59939;BME280;45801;51.810;19.444;2023-10-08T13:16:52;99636.17;;;12.90;40.99
59939;BME280;45801;51.810;19.444;2023-10-08T13:19:23;99635.84;;;12.77;40.67
59939;BME280;45801;51.810;19.444;2023-10-08T13:21:50;99629.80;;;12.67;41.72
59939;BME280;45801;51.810;19.444;2023-10-08T13:24:19;99630.80;;;12.66;42.60
59939;BME280;45801;51.810;19.444;2023-10-08T13:26:47;99634.65;;;12.65;42.12
59939;BME280;45801;51.810;19.444;2023-10-08T13:29:15;99640.05;;;12.68;42.85
59939;BME280;45801;51.810;19.444;2023-10-08T13:31:44;99646.48;;;12.67;41.81
59939;BME280;45801;51.810;19.444;2023-10-08T13:34:12;99644.04;;;12.67;42.70
59939;BME280;45801;51.810;19.444;2023-10-08T13:36:39;99639.91;;;12.65;42.37
59939;BME280;45801;51.810;19.444;2023-10-08T13:39:06;99635.13;;;12.55;41.21
59939;BME280;45801;51.810;19.444;2023-10-08T13:41:36;99630.36;;;12.50;41.11